createdAt,value
2018-09-09T00:00:40.120Z,19.80
2018-09-09T00:03:09.016Z,19.80
2018-09-09T00:05:37.519Z,19.80
2018-09-09T00:08:06.128Z,19.80
2018-09-09T00:10:34.623Z,19.80
2018-09-09T00:13:03.122Z,19.80
2018-09-09T00:15:31.635Z,19.80
2018-09-09T00:18:00.148Z,19.80
2018-09-09T00:20:28.643Z,19.80
2018-09-09T00:22:57.144Z,19.80
2018-09-09T00:25:25.650Z,19.70
2018-09-09T00:27:54.148Z,19.80
2018-09-09T00:30:22.649Z,19.70
2018-09-09T00:32:51.148Z,19.80
2018-09-09T00:35:19.641Z,19.70
2018-09-09T00:37:48.131Z,19.70
2018-09-09T00:40:16.639Z,19.70
2018-09-09T00:42:45.131Z,19.70
2018-09-09T00:45:13.635Z,19.70
2018-09-09T00:47:42.144Z,19.70
2018-09-09T00:50:15.903Z,19.70
2018-09-09T00:52:49.599Z,19.70
2018-09-09T00:55:18.103Z,19.60
2018-09-09T00:57:46.588Z,19.60
2018-09-09T01:00:18.948Z,19.70
2018-09-09T01:02:47.466Z,19.70
2018-09-09T01:05:16.283Z,19.70
2018-09-09T01:07:44.812Z,19.70
2018-09-09T01:10:13.308Z,19.60
2018-09-09T01:12:41.803Z,19.60
2018-09-09T01:15:10.294Z,19.60
2018-09-09T01:17:38.803Z,19.60
2018-09-09T01:20:07.303Z,19.60
2018-09-09T01:22:35.808Z,19.60
2018-09-09T01:25:04.571Z,19.60
2018-09-09T01:27:33.093Z,19.60
2018-09-09T01:30:01.589Z,19.60
2018-09-09T01:32:30.083Z,19.50
2018-09-09T01:34:58.580Z,19.60
2018-09-09T01:37:27.089Z,19.60
2018-09-09T01:39:55.596Z,19.50
2018-09-09T01:42:24.780Z,19.50
2018-09-09T01:44:53.275Z,19.50
2018-09-09T01:47:21.779Z,19.50
2018-09-09T01:49:50.283Z,19.50
2018-09-09T01:52:18.789Z,19.50
2018-09-09T01:54:47.291Z,19.50
2018-09-09T01:57:15.787Z,19.50
2018-09-09T01:59:44.323Z,19.50
2018-09-09T02:02:12.819Z,19.50
2018-09-09T02:04:41.301Z,19.50
2018-09-09T02:07:09.813Z,19.50
2018-09-09T02:09:38.299Z,19.50
2018-09-09T02:12:06.823Z,19.50
2018-09-09T02:14:35.316Z,19.50
2018-09-09T02:17:03.823Z,19.40
2018-09-09T02:19:32.322Z,19.40
2018-09-09T02:22:00.827Z,19.40
2018-09-09T02:24:29.655Z,19.40
2018-09-09T02:26:58.165Z,19.40
2018-09-09T02:29:27.272Z,19.40
2018-09-09T02:31:55.760Z,19.40
2018-09-09T02:34:24.274Z,19.40
2018-09-09T02:36:52.774Z,19.40
2018-09-09T02:39:21.273Z,19.40
2018-09-09T02:41:49.762Z,19.40
2018-09-09T02:44:18.267Z,19.40
2018-09-09T02:46:46.775Z,19.40
2018-09-09T02:49:15.294Z,19.40
2018-09-09T02:51:43.803Z,19.40
2018-09-09T02:54:12.307Z,19.30
2018-09-09T02:56:40.811Z,19.30
2018-09-09T02:59:09.311Z,19.30
2018-09-09T03:01:37.807Z,19.30
2018-09-09T03:04:06.323Z,19.30
2018-09-09T03:06:35.131Z,19.30
2018-09-09T03:09:04.967Z,19.30
2018-09-09T03:11:33.475Z,19.30
2018-09-09T03:14:01.968Z,19.30
2018-09-09T03:16:30.461Z,19.30
2018-09-09T03:18:58.955Z,19.20
2018-09-09T03:21:27.444Z,19.30
2018-09-09T03:23:55.943Z,19.20
2018-09-09T03:26:24.431Z,19.20
2018-09-09T03:28:53.250Z,19.20
2018-09-09T03:31:21.744Z,19.20
2018-09-09T03:33:50.255Z,19.20
2018-09-09T03:36:18.765Z,19.20
2018-09-09T03:38:47.276Z,19.20
2018-09-09T03:41:15.793Z,19.20
2018-09-09T03:43:44.292Z,19.20
2018-09-09T03:46:12.780Z,19.20
2018-09-09T03:48:41.275Z,19.20
2018-09-09T03:51:09.771Z,19.20
2018-09-09T03:53:38.595Z,19.20
2018-09-09T03:56:07.100Z,19.20
2018-09-09T03:58:35.608Z,19.20
2018-09-09T04:01:04.103Z,19.20
2018-09-09T04:03:32.596Z,19.10
2018-09-09T04:06:01.092Z,19.10
2018-09-09T04:08:29.605Z,19.10
2018-09-09T04:10:58.095Z,19.10
2018-09-09T04:13:26.595Z,19.10
2018-09-09T04:15:55.091Z,19.10
2018-09-09T04:18:23.916Z,19.10
2018-09-09T04:20:52.430Z,19.10
2018-09-09T04:23:20.944Z,19.10
2018-09-09T04:25:49.444Z,19.10
2018-09-09T04:28:17.940Z,19.10
2018-09-09T04:30:46.434Z,19.10
2018-09-09T04:33:14.948Z,19.10
2018-09-09T04:35:43.448Z,19.10
2018-09-09T04:38:11.979Z,19.10
2018-09-09T04:40:40.563Z,19.10
2018-09-09T04:43:09.094Z,19.10
2018-09-09T04:45:37.905Z,19.10
2018-09-09T04:48:06.439Z,19.10
2018-09-09T04:50:34.940Z,19.10
2018-09-09T04:53:03.438Z,19.10
2018-09-09T04:55:31.944Z,19.10
2018-09-09T04:58:00.474Z,19.20
2018-09-09T05:00:28.982Z,19.20
2018-09-09T05:02:57.470Z,19.20
2018-09-09T05:05:25.988Z,19.20
2018-09-09T05:07:54.496Z,19.20
2018-09-09T05:10:23.016Z,19.20
2018-09-09T05:12:51.690Z,19.20
2018-09-09T05:15:20.183Z,19.20
2018-09-09T05:17:48.680Z,19.20
2018-09-09T05:20:17.171Z,19.20
2018-09-09T05:22:45.680Z,19.20
2018-09-09T05:25:14.182Z,19.30
2018-09-09T05:27:42.667Z,19.30
2018-09-09T05:30:11.164Z,19.30
2018-09-09T05:32:39.682Z,19.40
2018-09-09T05:35:08.303Z,19.50
2018-09-09T05:37:36.807Z,19.60
2018-09-09T05:40:05.680Z,19.80
2018-09-09T05:42:34.664Z,19.90
2018-09-09T05:45:03.155Z,20.10
2018-09-09T05:47:31.663Z,20.20
2018-09-09T05:50:00.158Z,20.30
2018-09-09T05:52:28.655Z,20.40
2018-09-09T05:54:57.160Z,20.50
2018-09-09T05:57:25.730Z,20.50
2018-09-09T05:59:54.203Z,20.50
2018-09-09T06:02:22.699Z,20.50
2018-09-09T06:04:51.196Z,20.50
2018-09-09T06:07:19.687Z,20.60
2018-09-09T06:09:48.192Z,20.60
2018-09-09T06:12:16.704Z,20.60
2018-09-09T06:14:45.211Z,20.60
2018-09-09T06:17:13.704Z,20.50
2018-09-09T06:19:42.202Z,20.50
2018-09-09T06:22:10.690Z,20.50
2018-09-09T06:24:39.212Z,20.50
2018-09-09T06:27:07.724Z,20.50
2018-09-09T06:29:36.229Z,20.60
2018-09-09T06:32:04.740Z,20.70
2018-09-09T06:34:33.255Z,20.80
2018-09-09T06:37:01.756Z,21.00
2018-09-09T06:39:30.260Z,21.20
2018-09-09T06:41:58.778Z,21.30
2018-09-09T06:44:27.280Z,21.50
2018-09-09T06:46:55.779Z,21.60
2018-09-09T06:49:24.284Z,21.80
2018-09-09T06:51:52.787Z,21.90
2018-09-09T06:54:21.288Z,22.00
2018-09-09T06:56:49.796Z,22.10
2018-09-09T06:59:18.295Z,22.20
2018-09-09T07:01:46.788Z,22.30
2018-09-09T07:04:15.283Z,22.40
2018-09-09T07:06:43.790Z,22.60
2018-09-09T07:09:12.298Z,22.70
2018-09-09T07:11:40.910Z,22.80
2018-09-09T07:14:09.574Z,22.90
2018-09-09T07:16:38.078Z,23.00
2018-09-09T07:19:06.630Z,23.10
2018-09-09T07:21:35.126Z,23.20
2018-09-09T07:24:03.634Z,23.40
2018-09-09T07:26:32.132Z,23.50
2018-09-09T07:29:00.652Z,23.60
2018-09-09T07:31:29.155Z,23.70
2018-09-09T07:33:57.656Z,23.90
2018-09-09T07:36:26.166Z,24.00
2018-09-09T07:38:54.663Z,24.10
2018-09-09T07:41:23.171Z,24.30
2018-09-09T07:43:51.664Z,24.40
2018-09-09T07:46:20.205Z,24.50
2018-09-09T07:48:48.708Z,24.70
2018-09-09T07:51:17.207Z,24.90
2018-09-09T07:53:45.708Z,25.00
2018-09-09T07:56:14.217Z,25.20
2018-09-09T07:58:42.714Z,25.30
2018-09-09T08:01:11.211Z,25.40
2018-09-09T08:03:39.707Z,25.50
2018-09-09T08:06:08.203Z,25.50
2018-09-09T08:08:36.704Z,25.70
2018-09-09T08:11:05.195Z,25.80
2018-09-09T08:13:33.705Z,25.80
2018-09-09T08:16:02.212Z,25.90
2018-09-09T08:18:30.785Z,25.90
2018-09-09T08:20:59.215Z,26.00
2018-09-09T08:23:27.771Z,25.90
2018-09-09T08:25:56.236Z,25.90
2018-09-09T08:28:25.096Z,25.90
2018-09-09T08:30:53.617Z,25.90
2018-09-09T08:33:22.112Z,25.90
2018-09-09T08:35:50.595Z,25.90
2018-09-09T08:38:19.103Z,25.90
2018-09-09T08:40:47.608Z,25.90
2018-09-09T08:43:16.107Z,25.80
2018-09-09T08:45:44.605Z,25.80
2018-09-09T08:48:13.469Z,25.70
2018-09-09T08:50:41.968Z,25.70
2018-09-09T08:53:10.789Z,25.60
2018-09-09T08:55:39.281Z,25.50
2018-09-09T08:58:07.780Z,25.50
2018-09-09T09:00:36.283Z,25.40
2018-09-09T09:03:04.792Z,25.30
2018-09-09T09:05:33.292Z,25.20
2018-09-09T09:08:01.852Z,25.10
2018-09-09T09:10:30.311Z,25.00
2018-09-09T09:12:58.818Z,24.90
2018-09-09T09:15:27.325Z,24.70
2018-09-09T09:17:55.826Z,24.70
2018-09-09T09:20:24.336Z,24.60
2018-09-09T09:22:52.899Z,24.50
2018-09-09T09:25:21.406Z,24.40
2018-09-09T09:27:49.904Z,24.40
2018-09-09T09:30:18.408Z,24.40
2018-09-09T09:32:47.718Z,24.30
2018-09-09T09:35:16.196Z,24.30
2018-09-09T09:37:44.696Z,24.30
2018-09-09T09:40:13.192Z,24.30
2018-09-09T09:42:41.687Z,24.30
2018-09-09T09:45:10.195Z,24.30
2018-09-09T09:47:38.713Z,24.30
2018-09-09T09:50:07.213Z,24.20
2018-09-09T09:52:35.721Z,24.20
2018-09-09T09:55:04.277Z,24.20
2018-09-09T09:57:32.738Z,24.20
2018-09-09T10:00:01.241Z,24.20
2018-09-09T10:02:29.739Z,24.20
2018-09-09T10:04:58.228Z,24.10
2018-09-09T10:07:26.739Z,24.10
2018-09-09T10:09:55.243Z,24.10
2018-09-09T10:12:23.743Z,24.00
2018-09-09T10:14:52.243Z,24.00
2018-09-09T10:17:20.745Z,23.90
2018-09-09T10:19:49.269Z,23.90
2018-09-09T10:22:17.769Z,23.80
2018-09-09T10:24:46.268Z,23.80
2018-09-09T10:27:14.763Z,23.70
2018-09-09T10:29:43.276Z,23.60
2018-09-09T10:32:11.759Z,23.60
2018-09-09T10:34:40.317Z,23.60
2018-09-09T10:37:08.820Z,23.60
2018-09-09T10:39:37.319Z,23.50
2018-09-09T10:42:05.864Z,23.50
2018-09-09T10:44:34.367Z,23.50
2018-09-09T10:47:02.935Z,23.50
2018-09-09T10:49:31.391Z,23.50
2018-09-09T10:51:59.881Z,23.50
2018-09-09T10:54:28.387Z,23.50
2018-09-09T10:56:56.891Z,23.50
2018-09-09T10:59:25.380Z,23.40
2018-09-09T11:01:53.880Z,23.40
2018-09-09T11:04:22.379Z,23.40
2018-09-09T11:06:51.617Z,23.40
2018-09-09T11:09:20.091Z,23.40
2018-09-09T11:11:48.596Z,23.40
2018-09-09T11:14:17.103Z,23.40
2018-09-09T11:16:45.596Z,23.40
2018-09-09T11:19:14.097Z,23.40
2018-09-09T11:21:42.600Z,23.40
2018-09-09T11:24:11.173Z,23.40
2018-09-09T11:26:39.607Z,23.30
2018-09-09T11:29:08.100Z,23.40
2018-09-09T11:31:36.604Z,23.30
2018-09-09T11:34:05.104Z,23.30
2018-09-09T11:36:33.600Z,23.30
2018-09-09T11:39:02.179Z,23.20
2018-09-09T11:41:30.675Z,23.20
2018-09-09T11:43:59.176Z,23.30
2018-09-09T11:46:27.689Z,23.30
2018-09-09T11:48:56.186Z,23.30
2018-09-09T11:51:24.708Z,23.30
2018-09-09T11:53:53.215Z,23.30
2018-09-09T11:56:21.719Z,23.30
2018-09-09T11:58:50.247Z,23.40
2018-09-09T12:01:18.770Z,23.40
2018-09-09T12:03:47.291Z,23.40
2018-09-09T12:06:15.807Z,23.40
2018-09-09T12:08:44.320Z,23.30
2018-09-09T12:11:13.088Z,23.30
2018-09-09T12:13:42.103Z,23.30
2018-09-09T12:16:10.945Z,23.30
2018-09-09T12:18:39.751Z,23.20
2018-09-09T12:21:08.305Z,23.20
2018-09-09T12:23:36.866Z,23.20
2018-09-09T12:26:05.359Z,23.10
2018-09-09T12:28:33.867Z,23.20
2018-09-09T12:31:02.392Z,23.10
2018-09-09T12:33:30.891Z,23.10
2018-09-09T12:35:59.395Z,23.10
2018-09-09T12:38:27.905Z,23.10
2018-09-09T12:40:56.427Z,23.10
2018-09-09T12:43:30.193Z,23.10
2018-09-09T12:46:03.935Z,23.10
2018-09-09T12:48:37.824Z,23.10
2018-09-09T12:51:06.340Z,23.10
2018-09-09T12:53:34.847Z,23.10
2018-09-09T12:56:03.343Z,23.10
2018-09-09T12:58:31.843Z,23.10
2018-09-09T13:01:00.347Z,23.10
2018-09-09T13:03:28.847Z,23.10
2018-09-09T13:05:57.347Z,23.10
2018-09-09T13:08:25.855Z,23.00
2018-09-09T13:10:54.744Z,23.10
2018-09-09T13:13:23.261Z,23.10
2018-09-09T13:15:51.767Z,23.10
2018-09-09T13:18:20.296Z,23.00
2018-09-09T13:20:48.812Z,23.00
2018-09-09T13:23:17.311Z,23.00
2018-09-09T13:25:45.815Z,23.00
2018-09-09T13:28:14.311Z,23.00
2018-09-09T13:30:43.031Z,23.00
2018-09-09T13:33:11.607Z,23.00
2018-09-09T13:35:40.119Z,23.00
2018-09-09T13:38:08.613Z,23.00
2018-09-09T13:40:37.126Z,23.00
2018-09-09T13:43:05.871Z,23.00
2018-09-09T13:45:34.374Z,23.00
2018-09-09T13:48:02.985Z,23.00
2018-09-09T13:50:31.482Z,23.00
2018-09-09T13:52:59.987Z,23.00
2018-09-09T13:55:28.492Z,23.00
2018-09-09T13:57:57.008Z,22.90
2018-09-09T14:00:25.512Z,22.90
2018-09-09T14:02:54.027Z,22.90
2018-09-09T14:05:22.537Z,22.90
2018-09-09T14:07:51.043Z,22.90
2018-09-09T14:10:19.555Z,22.90
2018-09-09T14:12:48.060Z,22.90
2018-09-09T14:15:16.613Z,22.90
2018-09-09T14:17:45.100Z,22.90
2018-09-09T14:20:13.595Z,22.90
2018-09-09T14:22:42.177Z,22.90
2018-09-09T14:25:10.639Z,22.90
2018-09-09T14:27:39.138Z,22.80
2018-09-09T14:30:07.655Z,22.80
2018-09-09T14:32:36.159Z,22.80
2018-09-09T14:35:04.664Z,22.90
2018-09-09T14:37:33.171Z,22.80
2018-09-09T14:40:01.685Z,22.80
2018-09-09T14:42:30.196Z,22.90
2018-09-09T14:44:58.699Z,22.80
2018-09-09T14:47:27.207Z,22.80
2018-09-09T14:49:55.711Z,22.80
2018-09-09T14:52:24.628Z,22.80
2018-09-09T14:54:53.130Z,22.80
2018-09-09T14:57:21.643Z,22.80
2018-09-09T14:59:50.156Z,22.80
2018-09-09T15:02:18.674Z,22.70
2018-09-09T15:04:47.183Z,22.70
2018-09-09T15:07:15.683Z,22.70
2018-09-09T15:09:44.193Z,22.70
2018-09-09T15:12:12.699Z,22.70
2018-09-09T15:14:41.206Z,22.60
2018-09-09T15:17:09.715Z,22.70
2018-09-09T15:19:38.216Z,22.60
2018-09-09T15:22:06.848Z,22.60
2018-09-09T15:24:35.364Z,22.60
2018-09-09T15:27:03.873Z,22.60
2018-09-09T15:29:32.382Z,22.60
2018-09-09T15:32:00.883Z,22.60
2018-09-09T15:34:29.383Z,22.60
2018-09-09T15:36:57.889Z,22.60
2018-09-09T15:39:26.399Z,22.60
2018-09-09T15:41:54.907Z,22.60
2018-09-09T15:44:23.415Z,22.60
2018-09-09T15:46:51.919Z,22.50
2018-09-09T15:49:20.479Z,22.60
2018-09-09T15:51:49.001Z,22.50
2018-09-09T15:54:17.507Z,22.50
2018-09-09T15:56:46.015Z,22.50
2018-09-09T15:59:14.524Z,22.50
2018-09-09T16:01:43.044Z,22.50
2018-09-09T16:04:11.543Z,22.50
2018-09-09T16:06:40.045Z,22.50
2018-09-09T16:09:09.950Z,22.50
2018-09-09T16:11:38.983Z,22.50
2018-09-09T16:14:07.561Z,22.50
2018-09-09T16:16:36.055Z,22.40
2018-09-09T16:19:04.578Z,22.40
2018-09-09T16:21:33.079Z,22.40
2018-09-09T16:24:01.760Z,22.40
2018-09-09T16:26:30.280Z,22.40
2018-09-09T16:28:58.785Z,22.40
2018-09-09T16:31:27.290Z,22.40
2018-09-09T16:33:55.794Z,22.40
2018-09-09T16:36:24.296Z,22.30
2018-09-09T16:38:52.955Z,22.30
2018-09-09T16:41:21.468Z,22.30
2018-09-09T16:43:49.992Z,22.20
2018-09-09T16:46:18.495Z,22.20
2018-09-09T16:48:47.007Z,22.20
2018-09-09T16:51:15.508Z,22.20
2018-09-09T16:53:44.029Z,22.20
2018-09-09T16:56:12.528Z,22.20
2018-09-09T16:58:41.028Z,22.20
2018-09-09T17:01:09.550Z,22.20
2018-09-09T17:03:38.088Z,22.20
2018-09-09T17:06:06.967Z,22.20
2018-09-09T17:08:35.471Z,22.20
2018-09-09T17:11:03.992Z,22.20
2018-09-09T17:13:32.507Z,22.30
2018-09-09T17:16:01.039Z,22.20
2018-09-09T17:18:29.548Z,22.30
2018-09-09T17:20:58.056Z,22.20
2018-09-09T17:23:27.147Z,22.10
2018-09-09T17:25:56.003Z,22.00
2018-09-09T17:28:24.516Z,22.00
2018-09-09T17:30:53.051Z,22.00
2018-09-09T17:33:21.562Z,22.00
2018-09-09T17:35:50.081Z,21.90
2018-09-09T17:38:18.650Z,21.90
2018-09-09T17:40:47.155Z,21.80
2018-09-09T17:43:15.671Z,21.80
2018-09-09T17:45:44.183Z,21.80
2018-09-09T17:48:12.692Z,21.80
2018-09-09T17:50:41.196Z,21.80
2018-09-09T17:53:09.708Z,21.70
2018-09-09T17:55:38.220Z,21.70
2018-09-09T17:58:06.893Z,21.70
2018-09-09T18:00:35.404Z,21.60
2018-09-09T18:03:04.274Z,21.60
2018-09-09T18:05:32.775Z,21.60
2018-09-09T18:08:01.275Z,21.60
2018-09-09T18:10:29.779Z,21.60
2018-09-09T18:12:58.291Z,21.60
2018-09-09T18:15:26.811Z,21.60
2018-09-09T18:17:55.314Z,21.60
2018-09-09T18:20:23.876Z,21.60
2018-09-09T18:22:52.402Z,21.50
2018-09-09T18:25:20.902Z,21.60
2018-09-09T18:27:49.430Z,21.50
2018-09-09T18:30:17.936Z,21.50
2018-09-09T18:32:46.443Z,21.50
2018-09-09T18:35:14.943Z,21.50
2018-09-09T18:37:43.452Z,21.50
2018-09-09T18:40:12.238Z,21.50
2018-09-09T18:42:40.751Z,21.50
2018-09-09T18:45:09.716Z,21.50
2018-09-09T18:47:38.224Z,21.50
2018-09-09T18:50:06.744Z,21.50
2018-09-09T18:52:35.244Z,21.40
2018-09-09T18:55:04.015Z,21.40
2018-09-09T18:57:32.527Z,21.40
2018-09-09T19:00:01.074Z,21.40
2018-09-09T19:02:29.751Z,21.40
2018-09-09T19:04:58.259Z,21.40
2018-09-09T19:07:26.763Z,21.40
2018-09-09T19:09:55.275Z,21.40
2018-09-09T19:12:23.771Z,21.40
2018-09-09T19:14:52.283Z,21.30
2018-09-09T19:17:20.788Z,21.30
2018-09-09T19:19:49.287Z,21.30
2018-09-09T19:22:17.803Z,21.30
2018-09-09T19:24:46.308Z,21.30
2018-09-09T19:27:14.959Z,21.30
2018-09-09T19:29:43.650Z,21.30
2018-09-09T19:32:12.331Z,21.30
2018-09-09T19:34:40.823Z,21.30
2018-09-09T19:37:09.329Z,21.30
2018-09-09T19:39:37.823Z,21.30
2018-09-09T19:42:06.759Z,21.20
2018-09-09T19:44:35.262Z,21.20
2018-09-09T19:47:03.775Z,21.20
2018-09-09T19:49:32.283Z,21.20
2018-09-09T19:52:00.779Z,21.20
2018-09-09T19:54:29.303Z,21.20
2018-09-09T19:56:58.132Z,21.20
2018-09-09T19:59:26.672Z,21.20
2018-09-09T20:01:55.178Z,21.20
2018-09-09T20:04:23.736Z,21.10
2018-09-09T20:06:52.540Z,21.10
2018-09-09T20:09:21.056Z,21.10
2018-09-09T20:11:49.555Z,21.10
2018-09-09T20:14:18.058Z,21.10
2018-09-09T20:16:46.643Z,21.10
2018-09-09T20:19:15.147Z,21.10
2018-09-09T20:21:43.647Z,21.10
2018-09-09T20:24:12.148Z,21.10
2018-09-09T20:26:40.644Z,21.10
2018-09-09T20:29:09.160Z,21.10
2018-09-09T20:31:37.683Z,21.00
2018-09-09T20:34:06.192Z,21.00
2018-09-09T20:36:34.759Z,21.00
2018-09-09T20:39:03.416Z,21.00
2018-09-09T20:41:31.937Z,21.00
2018-09-09T20:44:00.436Z,21.00
2018-09-09T20:46:28.943Z,21.00
2018-09-09T20:48:57.432Z,21.00
2018-09-09T20:51:25.944Z,21.00
2018-09-09T20:53:54.451Z,20.90
2018-09-09T20:56:22.956Z,20.90
2018-09-09T20:58:51.487Z,20.90
2018-09-09T21:01:19.984Z,20.90
2018-09-09T21:03:48.480Z,20.90
2018-09-09T21:06:16.980Z,20.90
2018-09-09T21:08:45.473Z,20.90
2018-09-09T21:11:13.988Z,20.90
2018-09-09T21:13:42.499Z,20.90
2018-09-09T21:16:11.008Z,20.80
2018-09-09T21:18:39.496Z,20.80
2018-09-09T21:21:07.994Z,20.80
2018-09-09T21:23:36.504Z,20.80
2018-09-09T21:26:05.018Z,20.80
2018-09-09T21:28:33.507Z,20.80
2018-09-09T21:31:02.291Z,20.80
2018-09-09T21:33:30.795Z,20.80
2018-09-09T21:35:59.314Z,20.80
2018-09-09T21:38:27.819Z,20.80
2018-09-09T21:40:56.440Z,20.80
2018-09-09T21:43:24.951Z,20.80
2018-09-09T21:45:53.463Z,20.70
2018-09-09T21:48:21.974Z,20.70
2018-09-09T21:50:50.482Z,20.70
2018-09-09T21:53:18.979Z,20.70
2018-09-09T21:55:47.480Z,20.70
2018-09-09T21:58:15.967Z,20.70
2018-09-09T22:00:49.711Z,20.70
2018-09-09T22:03:18.215Z,20.70
2018-09-09T22:05:46.711Z,20.70
2018-09-09T22:08:15.210Z,20.70
2018-09-09T22:10:43.694Z,20.60
2018-09-09T22:13:12.201Z,20.60
2018-09-09T22:15:41.056Z,20.60
2018-09-09T22:18:09.599Z,20.60
2018-09-09T22:20:38.123Z,20.60
2018-09-09T22:23:06.628Z,20.60
2018-09-09T22:25:36.323Z,20.60
2018-09-09T22:28:05.303Z,20.60
2018-09-09T22:30:34.255Z,20.60
2018-09-09T22:33:02.755Z,20.60
2018-09-09T22:35:31.259Z,20.60
2018-09-09T22:37:59.771Z,20.60
2018-09-09T22:40:28.272Z,20.60
2018-09-09T22:42:56.779Z,20.60
2018-09-09T22:45:25.283Z,20.50
2018-09-09T22:47:53.779Z,20.50
2018-09-09T22:50:22.277Z,20.50
2018-09-09T22:52:50.778Z,20.50
2018-09-09T22:55:19.279Z,20.50
2018-09-09T22:57:47.771Z,20.50
2018-09-09T23:00:16.279Z,20.50
2018-09-09T23:02:44.775Z,20.50
2018-09-09T23:05:13.276Z,20.50
2018-09-09T23:07:41.776Z,20.50
2018-09-09T23:10:10.341Z,20.50
2018-09-09T23:12:38.805Z,20.50
2018-09-09T23:15:07.303Z,20.40
2018-09-09T23:17:35.795Z,20.40
2018-09-09T23:20:04.331Z,20.40
2018-09-09T23:22:32.855Z,20.40
2018-09-09T23:25:01.352Z,20.40
2018-09-09T23:27:29.895Z,20.40
2018-09-09T23:29:58.401Z,20.40
2018-09-09T23:32:26.903Z,20.40
2018-09-09T23:34:55.748Z,20.40
2018-09-09T23:37:24.235Z,20.40
2018-09-09T23:39:52.739Z,20.40
2018-09-09T23:42:21.227Z,20.40
2018-09-09T23:44:49.791Z,20.40
2018-09-09T23:47:18.303Z,20.30
2018-09-09T23:49:46.811Z,20.30
2018-09-09T23:52:15.300Z,20.30
2018-09-09T23:54:43.807Z,20.30
2018-09-09T23:57:12.304Z,20.30
2018-09-09T23:59:40.801Z,20.30
